Time;durP1;ratioP1;P1;durP2;ratioP2;P2;SDS_P1;SDS_P2;PMS_P1;PMS_P2;Temp;Humidity;BMP_temperature;BMP_pressure;BME280_temperature;BME280_humidity;BME280_pressure;Samples;Min_cycle;Max_cycle;Signal;HPM_P1;HPM_P2
2023/08/15 00:01:41;;;;;;;5.40;4.82;;;;;;;26.32;74.31;95462.91;6001174;23;20312;-90
2023/08/15 00:07:58;;;;;;;4.68;4.15;;;;;;;26.42;72.75;95437.16;6016116;23;20247;-91
2023/08/15 00:10:47;;;;;;;;;;;;;;;;;;;;;
2023/08/15 00:13:40;;;;;;;4.97;4.53;;;;;;;26.37;73.24;95437.22;6030244;23;20180;-92
2023/08/15 00:16:30;;;;;;;;;;;;;;;;;;;;;
2023/08/15 00:50:06;;;;;;;5.15;4.53;;;;;;;25.85;75.33;95505.72;6030024;23;20204;-90
2023/08/15 01:00:00;;;;;;;;;;;;;;;;;;;;;
2023/08/15 01:06:46;;;;;;;10.63;8.07;;;;;;;25.55;76.88;95530.41;6227209;22;20174;-91
2023/08/15 01:26:30;;;;;;;4.75;4.35;;;;;;;25.18;79.64;95592.25;6246504;22;20214;-92
2023/08/15 01:35:38;;;;;;;5.20;4.80;;;;;;;25.08;79.78;95619.41;6185073;23;20224;-93
2023/08/15 01:38:32;;;;;;;7.25;6.53;;;;;;;24.92;80.70;95631.00;6208084;23;20156;-91
2023/08/15 01:44:10;;;;;;;6.90;6.30;;;;;;;24.49;83.96;95674.44;6298051;22;20530;-91
2023/08/15 01:46:46;;;;;;;6.80;6.22;;;;;;;24.54;83.67;95665.78;6302660;22;20681;-91
2023/08/15 01:49:20;;;;;;;7.70;6.90;;;;;;;24.63;83.30;95659.72;6303260;22;20191;-91
2023/08/15 01:52:05;;;;;;;5.85;5.35;;;;;;;24.69;82.78;95642.06;6302208;22;20203;-91
2023/08/15 01:55:00;;;;;;;6.90;6.20;;;;;;;24.72;82.05;95633.66;6302644;22;20189;-91
2023/08/15 01:57:42;;;;;;;5.70;5.20;;;;;;;24.63;82.45;95645.78;6302063;22;20167;-91
2023/08/15 02:00:26;;;;;;;;;;;;;;;;;;;;;
2023/08/15 02:06:43;;;;;;;8.18;6.55;;;;;;;24.51;83.37;95645.22;6299709;22;20171;-91
2023/08/15 02:09:21;;;;;;;6.43;5.93;;;;;;;24.55;82.92;95646.28;6302900;22;20195;-91
2023/08/15 02:21:01;;;;;;;6.00;5.40;;;;;;;24.70;80.91;95597.03;6201681;22;20571;-92
2023/08/15 02:23:34;;;;;;;5.35;4.95;;;;;;;24.64;80.73;95592.81;6302100;22;20581;-92
2023/08/15 02:26:08;;;;;;;5.13;4.72;;;;;;;24.65;80.82;95596.25;6302503;22;20152;-91
2023/08/15 02:28:40;;;;;;;5.53;5.03;;;;;;;24.64;80.14;95584.13;6301745;22;20190;-91
2023/08/15 02:31:20;;;;;;;4.45;4.15;;;;;;;24.61;79.93;95580.22;6302866;22;20656;-91
2023/08/15 02:33:56;;;;;;;4.63;4.22;;;;;;;24.69;78.36;95557.81;6302379;22;20179;-91
2023/08/15 02:36:31;;;;;;;4.70;4.30;;;;;;;24.69;78.45;95542.78;6302760;22;20200;-91
2023/08/15 02:39:09;;;;;;;4.90;4.40;;;;;;;24.73;78.37;95545.69;6302456;22;20191;-91
2023/08/15 02:41:41;;;;;;;4.47;4.10;;;;;;;24.81;76.88;95510.13;6302948;22;20155;-91
2023/08/15 02:44:12;;;;;;;4.68;3.90;;;;;;;24.85;74.02;95445.31;6302019;22;20560;-91
2023/08/15 02:50:13;;;;;;;3.95;3.65;;;;;;;24.87;72.18;95398.41;6235535;22;20195;-91
2023/08/15 02:52:42;;;;;;;4.25;3.85;;;;;;;24.93;71.40;95390.22;6302531;22;20552;-92
2023/08/15 02:55:13;;;;;;;4.10;3.70;;;;;;;24.99;70.86;95372.59;6301483;22;20191;-91
2023/08/15 02:57:46;;;;;;;4.45;3.90;;;;;;;24.96;69.73;95346.78;6301951;22;20254;-91
2023/08/15 03:03:01;;;;;;;4.28;3.88;;;;;;;24.93;70.16;95347.28;6298813;22;20199;-90
2023/08/15 03:05:35;;;;;;;4.30;3.90;;;;;;;24.90;70.55;95353.88;6302070;22;20198;-92
2023/08/15 03:11:21;;;;;;;4.05;3.78;;;;;;;24.75;71.50;95370.56;6281129;22;20172;-91
2023/08/15 03:14:31;;;;;;;;;;;;;;;;;;;;;
2023/08/15 03:17:10;;;;;;;4.70;4.30;;;;;;;24.68;72.44;95401.66;6261386;22;20247;-90
2023/08/15 03:20:00;;;;;;;4.80;4.40;;;;;;;24.70;71.96;95404.81;6301199;22;20194;-91
2023/08/15 03:22:43;;;;;;;4.47;4.00;;;;;;;24.69;71.54;95394.53;6301867;22;20229;-93
2023/08/15 03:25:21;;;;;;;4.82;4.40;;;;;;;24.66;71.92;95395.06;6301636;22;20188;-91
2023/08/15 03:27:55;;;;;;;5.70;4.68;;;;;;;24.68;71.68;95400.88;6301432;22;20232;-92
2023/08/15 03:33:32;;;;;;;5.55;3.92;;;;;;;24.60;71.39;95398.81;6300741;22;20174;-90
2023/08/15 03:36:10;;;;;;;4.13;3.83;;;;;;;24.54;71.58;95405.91;6301985;22;20186;-91
2023/08/15 03:44:29;;;;;;;4.32;3.72;;;;;;;24.56;69.89;95350.38;6297722;22;20274;-90
2023/08/15 03:47:03;;;;;;;4.18;3.80;;;;;;;24.62;69.87;95344.03;6301994;22;20506;-93
2023/08/15 03:49:42;;;;;;;3.63;3.40;;;;;;;24.65;69.11;95338.22;6298601;22;20217;-91
2023/08/15 03:52:24;;;;;;;3.90;3.50;;;;;;;24.63;69.28;95337.72;6300015;22;20167;-92
2023/08/15 03:54:55;;;;;;;5.22;3.85;;;;;;;24.67;69.12;95336.09;6299547;22;20534;-91
2023/08/15 03:57:35;;;;;;;4.05;3.75;;;;;;;24.69;69.00;95340.03;6299565;22;20778;-92
2023/08/15 04:00:31;;;;;;;4.30;3.53;;;;;;;24.64;68.78;95318.19;6299490;22;20194;-92
2023/08/15 04:03:40;;;;;;;;;;;;;;;;;;;;;
2023/08/15 04:06:56;;;;;;;4.03;3.60;;;;;;;24.57;68.70;95312.47;6300919;22;20175;-92
2023/08/15 04:10:05;;;;;;;;;;;;;;;;;;;;;
2023/08/15 04:12:41;;;;;;;3.90;3.60;;;;;;;24.58;67.92;95298.25;6301621;22;20168;-93
2023/08/15 04:15:17;;;;;;;4.18;3.30;;;;;;;24.54;67.83;95291.94;6301163;22;20250;-91
2023/08/15 04:17:57;;;;;;;3.72;3.42;;;;;;;24.53;67.41;95290.34;6301261;22;20163;-91
2023/08/15 04:20:28;;;;;;;3.55;3.35;;;;;;;24.53;67.61;95293.00;6301248;22;20167;-91
2023/08/15 04:23:22;;;;;;;3.97;3.58;;;;;;;24.55;67.34;95290.88;6302133;22;20159;-92
2023/08/15 04:26:17;;;;;;;3.50;3.20;;;;;;;24.55;67.01;95270.59;6216859;22;20238;-92
2023/08/15 04:29:06;;;;;;;3.72;3.42;;;;;;;24.52;67.04;95276.41;6301345;22;20191;-92
2023/08/15 04:32:05;;;;;;;5.55;3.35;;;;;;;24.55;66.62;95260.06;6300882;22;20631;-91
2023/08/15 04:35:01;;;;;;;3.60;3.30;;;;;;;24.59;66.07;95258.47;6301546;22;20221;-91
2023/08/15 04:48:21;;;;;;;3.90;3.17;;;;;;;24.67;65.46;95249.19;6180381;22;20171;-92
2023/08/15 04:50:57;;;;;;;3.50;3.20;;;;;;;24.71;65.93;95268.66;6301191;22;20202;-92
2023/08/15 04:53:33;;;;;;;3.30;3.03;;;;;;;24.72;65.76;95265.78;6301275;22;20147;-91
2023/08/15 04:59:37;;;;;;;4.30;3.30;;;;;;;24.76;65.13;95256.25;6211113;22;20633;-92
2023/08/15 05:09:14;;;;;;;3.15;2.83;;;;;;;24.94;63.85;95230.31;6173110;23;20206;-92
2023/08/15 05:12:15;;;;;;;4.38;3.30;;;;;;;24.96;63.91;95233.50;6206904;22;20272;-91
2023/08/15 05:15:29;;;;;;;3.15;2.95;;;;;;;25.04;62.42;95188.91;6300889;22;20171;-91
2023/08/15 05:18:30;;;;;;;2.97;2.72;;;;;;;25.12;62.38;95188.31;6177783;23;20524;-93
2023/08/15 05:21:42;;;;;;;2.88;2.67;;;;;;;25.18;61.77;95154.81;6250180;22;20177;-91
2023/08/15 05:27:21;;;;;;;3.65;3.10;;;;;;;25.35;62.31;95170.19;6219843;22;20179;-91
2023/08/15 05:36:12;;;;;;;3.55;2.80;;;;;;;25.56;61.23;95153.09;6298739;22;20249;-93
2023/08/15 05:38:52;;;;;;;3.65;2.97;;;;;;;25.63;61.17;95139.56;6187539;22;20188;-91
2023/08/15 05:42:20;;;;;;;;;;;;;;;;;;;;;
2023/08/15 05:48:14;;;;;;;3.50;2.92;;;;;;;25.94;60.38;95137.38;6165070;23;20181;-92
2023/08/15 05:51:19;;;;;;;4.63;3.00;;;;;;;25.97;59.84;95118.34;6207507;23;20182;-92
2023/08/15 06:04:03;;;;;;;3.40;3.10;;;;;;;26.26;61.12;95170.97;6144541;23;20253;-92
2023/08/15 06:10:13;;;;;;;3.60;3.22;;;;;;;26.33;59.19;95093.03;6283362;22;20198;-92
2023/08/15 06:13:25;;;;;;;3.28;2.97;;;;;;;26.36;59.68;95131.28;6302861;22;20175;-92
2023/08/15 06:22:50;;;;;;;3.17;2.97;;;;;;;26.49;60.12;95144.53;6151275;23;20177;-92
2023/08/15 06:25:32;;;;;;;5.18;3.00;;;;;;;26.60;60.10;95168.13;6242626;22;20191;-92
2023/08/15 06:28:07;;;;;;;3.47;3.17;;;;;;;26.65;61.25;95208.44;6302252;22;20196;-93
2023/08/15 06:30:55;;;;;;;3.20;3.00;;;;;;;26.71;60.50;95178.25;6301799;22;20170;-93
2023/08/15 06:36:26;;;;;;;3.05;2.83;;;;;;;26.86;58.96;95111.19;6275054;22;20260;-93
2023/08/15 06:43:37;;;;;;;3.15;2.95;;;;;;;27.03;58.01;95090.28;6218794;22;20179;-92
2023/08/15 06:53:22;;;;;;;;;;;;;;;;;;;;;
2023/08/15 06:56:00;;;;;;;3.20;3.00;;;;;;;27.11;58.82;95120.56;6255866;22;20583;-91
2023/08/15 06:58:39;;;;;;;3.50;3.20;;;;;;;27.16;58.28;95115.94;6303747;22;20195;-92
2023/08/15 07:01:47;;;;;;;4.38;3.20;;;;;;;27.18;57.58;95079.44;6301803;22;20170;-91
2023/08/15 07:16:46;;;;;;;4.45;2.60;;;;;;;27.69;56.15;95024.78;6289114;22;20183;-91
2023/08/15 07:19:52;;;;;;;;;;;;;;;;;;;;;
2023/08/15 07:22:40;;;;;;;3.65;3.30;;;;;;;27.93;54.97;94979.50;6291248;22;20168;-90
2023/08/15 07:25:19;;;;;;;3.40;3.20;;;;;;;28.05;55.17;94972.59;6301615;22;20191;-92
2023/08/15 07:28:02;;;;;;;3.25;3.05;;;;;;;28.11;54.95;94984.59;6303652;22;20262;-92
2023/08/15 07:31:37;;;;;;;;;;;;;;;;;;;;;
2023/08/15 07:43:32;;;;;;;3.70;3.38;;;;;;;28.79;53.19;94890.69;6301528;22;20175;-90
2023/08/15 07:46:27;;;;;;;3.72;3.42;;;;;;;29.01;53.38;94899.66;6303709;22;20194;-92
2023/08/15 07:52:04;;;;;;;3.72;3.42;;;;;;;29.24;52.12;94849.94;6296764;22;20172;-92
2023/08/15 07:54:43;;;;;;;4.40;3.70;;;;;;;29.39;53.48;94900.66;6301982;22;20198;-92
2023/08/15 07:57:34;;;;;;;4.05;3.67;;;;;;;29.63;52.65;94910.03;6303447;22;20532;-92
2023/08/15 08:00:20;;;;;;;5.28;3.88;;;;;;;29.82;52.31;94887.38;6301966;22;20211;-92
2023/08/15 08:03:10;;;;;;;;;;;;;;;;;;;;;
2023/08/15 08:06:18;;;;;;;6.55;3.97;;;;;;;29.97;52.19;94878.13;6302029;22;20278;-93
2023/08/15 08:08:53;;;;;;;4.55;4.10;;;;;;;30.09;52.22;94864.22;6256732;22;20526;-93
2023/08/15 08:11:41;;;;;;;4.38;3.80;;;;;;;30.33;52.10;94871.63;6303180;22;20163;-92
2023/08/15 08:14:38;;;;;;;6.03;4.03;;;;;;;30.47;52.89;94906.72;6302904;22;20183;-92
2023/08/15 08:17:10;;;;;;;7.55;4.10;;;;;;;30.45;52.69;94919.56;6302905;22;20619;-92
2023/08/15 08:19:42;;;;;;;4.47;4.07;;;;;;;30.32;53.68;94949.78;6302510;22;20274;-92
2023/08/15 08:22:22;;;;;;;4.47;4.10;;;;;;;30.09;53.86;94973.09;6302456;22;20167;-94
2023/08/15 08:25:09;;;;;;;4.25;3.92;;;;;;;29.88;54.96;95010.09;6303276;22;20228;-93
2023/08/15 08:27:43;;;;;;;4.65;4.25;;;;;;;29.73;54.24;94976.84;6302910;22;20171;-92
2023/08/15 08:33:37;;;;;;;4.40;3.75;;;;;;;30.05;54.29;95001.34;6300067;22;20172;-92
2023/08/15 08:36:19;;;;;;;4.50;4.10;;;;;;;29.85;53.34;94954.97;6302983;22;20178;-92
2023/08/15 08:38:56;;;;;;;4.53;4.20;;;;;;;30.02;54.32;95017.94;6301817;22;20188;-92
2023/08/15 08:41:31;;;;;;;4.38;4.05;;;;;;;30.40;53.74;94992.25;6303944;22;20167;-92
2023/08/15 08:44:23;;;;;;;4.13;3.83;;;;;;;30.70;52.99;94960.47;6302790;22;20231;-95
2023/08/15 08:47:07;;;;;;;4.32;4.03;;;;;;;30.90;53.21;94979.13;6304365;22;20537;-94
2023/08/15 09:22:09;;;;;;;5.03;4.22;;;;;;;32.09;50.34;94834.06;6169657;23;20177;-91
2023/08/15 09:28:34;;;;;;;4.80;4.40;;;;;;;32.60;48.80;94757.25;6044986;23;20216;-93
2023/08/15 09:38:58;;;;;;;;;;;;;;;;;;;;;
2023/08/15 09:44:56;;;;;;;5.15;4.75;;;;;;;33.12;49.32;94778.56;6221926;22;20171;-92
2023/08/15 09:47:23;;;;;;;5.05;4.75;;;;;;;33.06;48.64;94739.16;6305923;22;20273;-92
2023/08/15 09:59:36;;;;;;;6.65;4.68;;;;;;;33.62;48.60;94732.66;6176604;22;20190;-92
2023/08/15 10:02:31;;;;;;;4.88;4.47;;;;;;;33.65;48.06;94709.06;6123687;23;20183;-91
2023/08/15 10:51:30;;;;;;;5.28;4.88;;;;;;;34.00;48.04;94715.28;6110746;23;20219;-94
2023/08/15 10:53:59;;;;;;;5.20;4.80;;;;;;;33.95;48.14;94727.00;6065228;22;20208;-82
2023/08/15 10:56:28;;;;;;;5.72;5.03;;;;;;;34.02;47.41;94685.53;6275616;22;20176;-82
2023/08/15 10:58:55;;;;;;;5.05;4.65;;;;;;;34.07;46.92;94669.22;6275755;22;20172;-81
2023/08/15 11:01:24;;;;;;;6.78;5.00;;;;;;;34.11;47.45;94689.56;6274565;22;20511;-82
2023/08/15 11:03:52;;;;;;;5.20;4.80;;;;;;;34.27;47.39;94686.84;6280779;22;20187;-82
2023/08/15 11:06:18;;;;;;;4.93;4.47;;;;;;;34.29;46.77;94655.25;6306897;22;20274;-82
2023/08/15 11:08:47;;;;;;;5.57;5.10;;;;;;;34.21;46.69;94664.22;6306832;22;20199;-81
2023/08/15 11:11:15;;;;;;;5.38;4.88;;;;;;;34.21;46.84;94667.66;6305383;22;20182;-82
2023/08/15 11:13:42;;;;;;;5.00;4.60;;;;;;;34.19;46.96;94671.81;6306359;22;20175;-80
2023/08/15 11:16:09;;;;;;;5.35;4.95;;;;;;;34.13;47.24;94690.00;6306507;22;20175;-82
2023/08/15 11:18:37;;;;;;;5.07;4.68;;;;;;;34.23;46.46;94645.94;6306351;22;20179;-82
2023/08/15 11:21:08;;;;;;;5.47;5.07;;;;;;;34.19;46.60;94645.84;6305810;22;20175;-82
2023/08/15 11:23:34;;;;;;;5.40;4.65;;;;;;;34.21;46.53;94638.25;6305399;22;20263;-82
2023/08/15 11:26:02;;;;;;;4.53;4.22;;;;;;;34.12;47.16;94674.31;6302245;22;20199;-82
2023/08/15 11:28:31;;;;;;;5.93;5.05;;;;;;;34.09;46.63;94629.56;6302782;22;20175;-82
2023/08/15 11:30:58;;;;;;;4.80;4.40;;;;;;;34.22;46.32;94623.78;6303103;22;20178;-81
2023/08/15 11:33:25;;;;;;;5.65;4.60;;;;;;;34.38;46.20;94622.97;6303046;22;20507;-81
2023/08/15 11:35:51;;;;;;;4.72;4.32;;;;;;;34.14;45.96;94597.25;6303167;22;20172;-81
2023/08/15 11:38:18;;;;;;;4.70;4.30;;;;;;;33.77;45.75;94581.56;6302939;22;20198;-83
2023/08/15 11:40:45;;;;;;;6.13;4.72;;;;;;;33.82;45.54;94577.88;6302990;22;20206;-83
2023/08/15 11:43:12;;;;;;;8.32;4.38;;;;;;;33.63;46.17;94579.34;6303485;22;20646;-82
2023/08/15 11:45:44;;;;;;;4.47;4.07;;;;;;;33.42;45.10;94525.47;6303546;22;20191;-81
2023/08/15 11:48:10;;;;;;;4.75;4.35;;;;;;;33.55;45.34;94528.78;6304053;22;20209;-82
2023/08/15 11:50:39;;;;;;;4.28;3.88;;;;;;;33.52;45.45;94537.50;6303827;22;20175;-81
2023/08/15 11:53:09;;;;;;;5.55;4.05;;;;;;;33.51;44.39;94480.66;6303775;22;20171;-82
2023/08/15 11:55:36;;;;;;;4.63;4.22;;;;;;;33.62;43.88;94457.66;6303762;22;20594;-81
2023/08/15 11:58:04;;;;;;;5.15;4.72;;;;;;;33.72;43.81;94472.31;6304822;22;20704;-82
2023/08/15 12:00:30;;;;;;;5.45;4.43;;;;;;;33.96;43.70;94480.09;6304909;22;20182;-82
2023/08/15 12:02:58;;;;;;;4.40;4.00;;;;;;;34.22;42.49;94396.63;6305439;22;20175;-82
2023/08/15 12:05:25;;;;;;;6.00;3.88;;;;;;;34.29;41.79;94353.22;6304234;22;20706;-82
2023/08/15 12:07:51;;;;;;;4.38;3.75;;;;;;;34.33;41.46;94329.22;6302301;22;20198;-81
2023/08/15 12:10:18;;;;;;;6.15;4.25;;;;;;;34.42;41.00;94297.69;6302918;22;20183;-83
2023/08/15 12:12:46;;;;;;;5.38;3.90;;;;;;;34.50;41.63;94344.75;6303074;22;20502;-81
2023/08/15 12:15:15;;;;;;;4.60;3.88;;;;;;;34.60;40.79;94306.75;6302797;22;20202;-81
2023/08/15 12:17:42;;;;;;;4.90;4.38;;;;;;;34.72;41.16;94297.72;6303679;22;20178;-83
2023/08/15 12:20:12;;;;;;;4.93;4.03;;;;;;;34.74;39.40;94218.69;6303121;22;20171;-82
2023/08/15 12:22:39;;;;;;;3.95;3.63;;;;;;;34.73;38.91;94176.25;6302994;22;20178;-83
2023/08/15 12:25:08;;;;;;;4.75;3.78;;;;;;;34.75;37.59;94107.13;6303926;22;20215;-82
2023/08/15 12:27:34;;;;;;;6.15;3.40;;;;;;;34.89;35.97;94011.00;6303491;22;20192;-81
2023/08/15 12:30:01;;;;;;;5.97;3.10;;;;;;;35.00;35.78;93992.38;6302923;22;20175;-81
2023/08/15 12:32:28;;;;;;;6.10;3.20;;;;;;;34.84;34.99;93925.75;6303315;22;20198;-81
2023/08/15 12:34:54;;;;;;;4.72;3.28;;;;;;;34.94;35.94;93989.25;6303330;22;20427;-81
2023/08/15 12:37:22;;;;;;;4.05;2.95;;;;;;;35.17;35.79;93989.84;6302131;22;20171;-81
2023/08/15 12:39:49;;;;;;;4.82;3.00;;;;;;;35.31;34.78;93932.97;6302429;22;20172;-82
2023/08/15 12:42:15;;;;;;;4.15;3.15;;;;;;;35.33;34.45;93909.28;6302431;22;20491;-84
2023/08/15 12:44:42;;;;;;;6.57;3.33;;;;;;;35.31;33.94;93890.16;6302402;22;20217;-81
2023/08/15 12:47:09;;;;;;;5.63;3.08;;;;;;;35.22;33.30;93869.03;6302892;22;20195;-81
2023/08/15 12:49:36;;;;;;;4.47;2.85;;;;;;;35.37;34.11;93930.72;6303729;22;20182;-83
2023/08/15 12:52:02;;;;;;;2.97;2.60;;;;;;;35.41;34.12;93940.28;6304893;22;20179;-83
2023/08/15 12:54:30;;;;;;;5.05;2.92;;;;;;;35.49;33.96;93951.81;6304121;22;20199;-81
2023/08/15 12:56:56;;;;;;;6.53;2.88;;;;;;;35.58;33.72;93933.50;6304738;22;20167;-81
2023/08/15 12:59:25;;;;;;;6.65;3.05;;;;;;;35.52;33.53;93916.25;6304534;22;20175;-81
2023/08/15 13:01:52;;;;;;;7.43;3.25;;;;;;;35.57;33.60;93918.59;6303918;22;20175;-82
2023/08/15 13:04:19;;;;;;;9.40;3.35;;;;;;;35.26;33.74;93926.03;6304390;22;20195;-81
2023/08/15 13:06:45;;;;;;;6.32;3.28;;;;;;;34.89;34.71;93990.38;6303912;22;20192;-81
2023/08/15 13:09:12;;;;;;;4.22;3.10;;;;;;;34.47;35.33;94032.72;6304773;22;20184;-81
2023/08/15 13:11:40;;;;;;;6.68;3.00;;;;;;;34.14;36.51;94092.25;6304892;22;20171;-82
2023/08/15 13:14:07;;;;;;;5.15;3.25;;;;;;;34.04;37.02;94132.94;6303675;22;20199;-81
2023/08/15 13:16:34;;;;;;;5.32;3.40;;;;;;;33.82;37.17;94137.22;6304090;22;20168;-82
2023/08/15 13:19:00;;;;;;;5.10;3.35;;;;;;;33.68;37.39;94144.97;6304901;22;20505;-81
2023/08/15 13:21:28;;;;;;;5.43;3.20;;;;;;;33.53;37.67;94170.66;6304073;22;20175;-83
2023/08/15 13:23:54;;;;;;;3.38;2.97;;;;;;;33.23;37.68;94141.16;6302601;22;20195;-81
2023/08/15 13:26:21;;;;;;;5.70;3.05;;;;;;;33.11;37.63;94149.31;6303875;22;20203;-83
2023/08/15 13:28:49;;;;;;;5.90;3.40;;;;;;;32.81;38.00;94152.59;6303865;22;20176;-82
2023/08/15 13:31:16;;;;;;;4.80;3.63;;;;;;;32.38;42.33;94388.09;6304466;22;20547;-82
2023/08/15 13:33:44;;;;;;;4.95;3.75;;;;;;;31.46;47.67;94657.00;6304685;22;20172;-83
2023/08/15 13:36:10;;;;;;;7.05;4.40;;;;;;;30.60;49.84;94783.53;6304365;22;20255;-80
2023/08/15 13:38:37;;;;;;;7.22;4.35;;;;;;;30.01;52.50;94854.41;6305199;22;20237;-79
2023/08/15 13:41:04;;;;;;;4.40;4.00;;;;;;;29.60;53.43;94895.53;6305339;22;20179;-81
2023/08/15 13:43:33;;;;;;;4.45;4.03;;;;;;;29.48;53.59;94895.34;6305001;22;20171;-80
2023/08/15 13:46:04;;;;;;;6.43;3.80;;;;;;;29.51;53.66;94898.16;6303823;22;20837;-81
2023/08/15 13:48:30;;;;;;;4.88;4.47;;;;;;;29.47;53.38;94899.09;6305112;22;20180;-81
2023/08/15 13:50:57;;;;;;;5.35;4.38;;;;;;;29.64;53.02;94895.66;6304139;22;20171;-81
2023/08/15 13:53:23;;;;;;;6.90;3.90;;;;;;;29.62;52.91;94896.00;6304140;22;20176;-81
2023/08/15 13:55:49;;;;;;;4.40;3.90;;;;;;;29.63;52.76;94873.66;6303223;22;20210;-82
2023/08/15 13:58:16;;;;;;;4.60;4.20;;;;;;;29.66;51.94;94883.63;6306798;22;20546;-82
2023/08/15 14:00:43;;;;;;;5.03;4.57;;;;;;;29.80;52.42;94883.47;6303032;22;20187;-80
2023/08/15 14:03:11;;;;;;;5.13;4.38;;;;;;;29.60;52.63;94900.81;6304242;22;20207;-80
2023/08/15 14:05:37;;;;;;;4.90;4.40;;;;;;;29.57;52.62;94924.53;6304168;22;20214;-80
2023/08/15 14:08:05;;;;;;;4.50;4.10;;;;;;;29.41;52.69;94924.22;6304168;22;20192;-79
2023/08/15 14:10:32;;;;;;;5.65;4.45;;;;;;;29.33;53.16;94960.22;6304145;22;20622;-81
2023/08/15 14:13:00;;;;;;;10.73;9.18;;;;;;;29.15;54.25;95012.44;6303980;22;20180;-80
2023/08/15 14:15:27;;;;;;;12.00;9.70;;;;;;;29.05;54.62;95022.56;6303732;22;20191;-81
2023/08/15 14:17:53;;;;;;;9.45;8.15;;;;;;;29.03;55.21;95027.38;6302697;22;20498;-82
2023/08/15 14:20:21;;;;;;;8.18;7.15;;;;;;;29.13;55.49;95021.78;6303995;22;20176;-81
2023/08/15 14:22:47;;;;;;;10.18;8.50;;;;;;;29.24;55.02;95019.66;6303888;22;20175;-81
2023/08/15 14:25:15;;;;;;;13.55;12.10;;;;;;;29.22;55.11;95017.31;6304858;22;20195;-82
2023/08/15 14:27:42;;;;;;;14.48;11.02;;;;;;;29.25;55.20;95015.91;6303642;22;20195;-82
2023/08/15 14:30:09;;;;;;;12.70;11.38;;;;;;;29.11;54.68;94998.25;6304623;22;20194;-81
2023/08/15 14:32:35;;;;;;;10.70;9.20;;;;;;;29.10;54.88;95017.09;6303597;22;20182;-81
2023/08/15 14:35:02;;;;;;;15.57;13.65;;;;;;;28.99;55.89;95045.00;6302440;22;20529;-82
2023/08/15 14:37:30;;;;;;;7.20;6.50;;;;;;;29.03;56.30;95091.00;6302722;22;20167;-83
2023/08/15 14:39:56;;;;;;;6.60;5.88;;;;;;;28.98;57.02;95131.69;6303075;22;20708;-80
2023/08/15 14:42:23;;;;;;;5.45;4.95;;;;;;;28.69;59.07;95203.63;6303795;22;20179;-80
2023/08/15 14:44:49;;;;;;;5.80;5.18;;;;;;;28.56;59.88;95225.66;6303442;22;20195;-82
2023/08/15 14:47:17;;;;;;;7.72;6.00;;;;;;;28.51;59.88;95226.56;6304135;22;20550;-84
2023/08/15 14:49:43;;;;;;;5.32;4.82;;;;;;;28.39;59.95;95241.41;6303884;22;20225;-83
2023/08/15 14:52:10;;;;;;;9.32;7.30;;;;;;;28.15;60.93;95281.31;6304736;22;20190;-82
2023/08/15 14:54:38;;;;;;;6.40;4.65;;;;;;;27.93;61.67;95316.41;6303526;22;20210;-81
2023/08/15 14:57:04;;;;;;;5.65;4.88;;;;;;;27.78;62.55;95354.50;6303363;22;20211;-80
2023/08/15 14:59:31;;;;;;;6.30;5.15;;;;;;;27.59;63.51;95359.06;6303102;22;20171;-80
2023/08/15 15:01:58;;;;;;;4.90;4.40;;;;;;;27.55;62.50;95317.56;6302591;22;20183;-80
2023/08/15 15:04:24;;;;;;;6.22;4.50;;;;;;;27.51;62.22;95314.72;6303236;22;20195;-82
2023/08/15 15:06:51;;;;;;;9.48;5.85;;;;;;;27.63;61.95;95309.78;6304529;22;20174;-83
2023/08/15 15:09:17;;;;;;;5.18;4.28;;;;;;;27.49;62.37;95327.47;6305089;22;20182;-81
2023/08/15 15:11:45;;;;;;;4.78;4.38;;;;;;;27.49;63.12;95353.91;6303720;22;20801;-82
2023/08/15 15:14:11;;;;;;;6.63;5.38;;;;;;;27.50;64.86;95405.75;6303108;22;20701;-82
2023/08/15 15:16:38;;;;;;;7.10;5.20;;;;;;;27.42;67.37;95475.91;6303946;22;20171;-82
2023/08/15 15:19:04;;;;;;;5.50;4.97;;;;;;;27.33;69.90;95532.34;6304384;22;20182;-81
2023/08/15 15:21:31;;;;;;;7.15;6.45;;;;;;;27.34;73.25;95605.34;6303304;22;20175;-81
2023/08/15 15:23:57;;;;;;;5.90;5.40;;;;;;;27.23;72.60;95607.31;6302495;22;20210;-82
2023/08/15 15:26:24;;;;;;;8.20;6.05;;;;;;;27.06;75.94;95667.75;6302802;22;20650;-82
2023/08/15 15:28:51;;;;;;;5.25;4.57;;;;;;;26.97;75.58;95677.34;6302644;22;20195;-81
2023/08/15 15:31:18;;;;;;;7.00;5.00;;;;;;;26.89;75.63;95683.22;6303500;22;20171;-81
2023/08/15 15:33:44;;;;;;;7.45;6.55;;;;;;;26.89;75.59;95673.44;6303014;22;20661;-82
2023/08/15 15:36:11;;;;;;;8.63;6.60;;;;;;;26.71;77.53;95719.81;6303412;22;20175;-81
2023/08/15 15:38:37;;;;;;;8.02;6.00;;;;;;;26.59;78.81;95750.25;6301050;22;20179;-82
2023/08/15 15:41:03;;;;;;;11.35;8.20;;;;;;;26.57;80.28;95765.56;6302493;22;20179;-82
2023/08/15 15:43:30;;;;;;;6.28;4.57;;;;;;;26.58;78.38;95733.63;6301991;22;20172;-82
2023/08/15 15:45:58;;;;;;;6.70;4.85;;;;;;;26.48;79.69;95762.75;6302535;22;20263;-83
2023/08/15 15:48:24;;;;;;;5.43;4.72;;;;;;;26.60;76.95;95720.13;6302360;22;20195;-82
2023/08/15 15:50:51;;;;;;;5.68;4.55;;;;;;;26.61;77.73;95719.88;6301968;22;20178;-83
2023/08/15 15:53:17;;;;;;;6.35;4.30;;;;;;;26.72;77.47;95702.09;6302637;22;20515;-81
2023/08/15 15:55:43;;;;;;;7.60;4.88;;;;;;;26.76;76.61;95685.41;6300941;22;20203;-81
2023/08/15 15:58:10;;;;;;;7.18;4.85;;;;;;;26.82;76.72;95686.97;6302138;22;20759;-82
2023/08/15 16:00:36;;;;;;;5.63;4.70;;;;;;;26.81;77.14;95695.94;6301175;22;20171;-82
2023/08/15 16:03:04;;;;;;;6.47;4.97;;;;;;;26.80;78.56;95717.34;6302651;22;20225;-82
2023/08/15 16:05:31;;;;;;;5.57;4.78;;;;;;;26.78;77.71;95717.63;6301141;22;20191;-82
2023/08/15 16:07:57;;;;;;;7.55;4.95;;;;;;;26.72;77.69;95713.47;6301639;22;20195;-81
2023/08/15 16:10:24;;;;;;;5.90;4.80;;;;;;;26.69;77.50;95723.78;6300964;22;20556;-82
2023/08/15 16:12:50;;;;;;;6.55;4.47;;;;;;;26.59;77.68;95721.97;6302439;22;20180;-81
2023/08/15 16:15:17;;;;;;;7.05;4.93;;;;;;;26.60;77.41;95715.63;6303045;22;20195;-81
2023/08/15 16:17:45;;;;;;;5.38;4.88;;;;;;;26.41;77.13;95709.41;6302944;22;20167;-80
2023/08/15 16:20:13;;;;;;;4.85;4.45;;;;;;;26.35;76.77;95703.41;6302527;22;20566;-79
2023/08/15 16:22:40;;;;;;;6.13;4.68;;;;;;;26.35;76.14;95700.75;6303212;22;20517;-80
2023/08/15 16:25:07;;;;;;;6.15;5.25;;;;;;;26.28;76.54;95707.38;6302477;22;20202;-81
2023/08/15 16:27:33;;;;;;;6.40;4.85;;;;;;;26.21;76.81;95699.72;6302398;22;20198;-80
2023/08/15 16:30:00;;;;;;;7.45;4.65;;;;;;;26.06;77.37;95708.53;6303816;22;20518;-80
2023/08/15 16:32:27;;;;;;;7.32;5.43;;;;;;;25.91;78.47;95734.97;6303366;22;20178;-80
2023/08/15 16:34:53;;;;;;;5.82;4.47;;;;;;;25.93;76.88;95713.59;6303042;22;20237;-80
2023/08/15 16:37:21;;;;;;;5.28;4.78;;;;;;;25.86;78.37;95734.19;6304427;22;20175;-80
2023/08/15 16:39:47;;;;;;;6.45;5.18;;;;;;;25.80;78.30;95741.31;6303574;22;20183;-81
2023/08/15 16:42:14;;;;;;;6.65;5.30;;;;;;;25.81;79.04;95761.38;6303887;22;20483;-81
2023/08/15 16:44:40;;;;;;;5.70;5.22;;;;;;;25.88;78.16;95748.69;6303823;22;20202;-81
2023/08/15 16:47:07;;;;;;;6.80;4.97;;;;;;;25.95;77.04;95728.09;6304521;22;20199;-83
2023/08/15 16:49:33;;;;;;;7.05;5.43;;;;;;;26.07;77.17;95720.66;6303884;22;20182;-80
2023/08/15 16:51:59;;;;;;;7.32;5.32;;;;;;;26.11;76.61;95705.88;6303662;22;20179;-80
2023/08/15 16:54:27;;;;;;;5.68;5.13;;;;;;;26.12;76.14;95694.25;6302963;22;20222;-81
2023/08/15 16:56:53;;;;;;;5.28;4.80;;;;;;;26.20;75.35;95684.16;6303310;22;20187;-81
2023/08/15 16:59:20;;;;;;;6.47;5.13;;;;;;;26.18;75.11;95671.22;6302366;22;20225;-80
2023/08/15 17:01:46;;;;;;;7.00;5.43;;;;;;;26.19;75.09;95662.25;6301364;22;20657;-80
2023/08/15 17:04:13;;;;;;;7.15;5.85;;;;;;;26.21;75.37;95678.63;6304082;22;20196;-81
2023/08/15 17:06:39;;;;;;;6.97;5.75;;;;;;;26.15;76.10;95701.63;6303707;22;20669;-81
2023/08/15 17:09:05;;;;;;;6.95;5.70;;;;;;;26.09;76.85;95726.47;6303018;22;20279;-81
2023/08/15 17:11:33;;;;;;;6.25;5.40;;;;;;;26.18;75.96;95702.91;6302364;22;20178;-81
2023/08/15 17:14:00;;;;;;;7.75;6.00;;;;;;;26.08;75.04;95671.31;6301653;22;20198;-81
2023/08/15 17:16:26;;;;;;;5.95;5.35;;;;;;;26.05;73.97;95658.66;6301628;22;20171;-81
2023/08/15 17:18:53;;;;;;;8.80;5.35;;;;;;;26.04;74.01;95659.72;6302467;22;20168;-81
2023/08/15 17:21:19;;;;;;;7.32;5.22;;;;;;;25.88;74.44;95648.44;6301730;22;20179;-82
2023/08/15 17:23:45;;;;;;;13.10;8.63;;;;;;;25.79;75.68;95679.06;6302206;22;20175;-82
2023/08/15 17:26:12;;;;;;;6.75;5.22;;;;;;;25.77;75.19;95675.94;6302018;22;20778;-83